Adams Center, New York
Current Conditions -  °F | °C
As of 1:56 AM on Saturday 01 Nov 2014 (Local Time) from KART Reporting Station
Broken Clouds Broken Clouds  
Wind Chill: 31°   Ceiling: 9000
Heat Index: 39°   Visibility: 10mi
Dew Point: 30°   Wind: 14mph
Humidity: 70%   Direction: 50°NE
Pressure: 30.02"   Gusts: NA
Location:  43.86°N, 76°W
Report Text: KART 010556Z AUTO 05012KT 10SM FEW065 SCT080 BKN090 04/M01 A3002 RMK AO2 SLP169 60000 T00391011 10067 20039 55002
Loading
Personal Weather Stations






























Interactive Weather Map
Tropical Storm Tracking
New forecast layout! Learn more

10-Day Weather Forecast

Advertisements
Track Severe Weather on mobile